createdAt,value
2018-03-01T00:00:04.492Z,99397
2018-03-01T00:02:11.189Z,99391
2018-03-01T00:04:16.823Z,99395
2018-03-01T00:06:22.462Z,99393
2018-03-01T00:08:28.770Z,99385
2018-03-01T00:10:35.083Z,99390
2018-03-01T00:12:40.624Z,99386
2018-03-01T00:14:47.266Z,99379
2018-03-01T00:16:53.348Z,99377
2018-03-01T00:19:00.321Z,99379
2018-03-01T00:21:06.325Z,99381
2018-03-01T00:23:12.283Z,99379
2018-03-01T00:25:18.066Z,99376
2018-03-01T00:27:23.583Z,99373
2018-03-01T00:29:29.083Z,99365
2018-03-01T00:31:34.872Z,99361
2018-03-01T00:33:41.239Z,99357
2018-03-01T00:35:46.784Z,99362
2018-03-01T00:37:52.275Z,99363
2018-03-01T00:39:59.952Z,99361
2018-03-01T00:42:05.416Z,99369
2018-03-01T00:44:11.515Z,99370
2018-03-01T00:46:17.024Z,99367
2018-03-01T00:48:23.482Z,99360
2018-03-01T00:50:29.015Z,99357
2018-03-01T00:52:34.932Z,99353
2018-03-01T00:54:40.848Z,99347
2018-03-01T00:56:47.412Z,99344
2018-03-01T00:58:53.656Z,99337
2018-03-01T01:01:00.053Z,99326
2018-03-01T01:03:06.846Z,99326
2018-03-01T01:05:12.723Z,99326
2018-03-01T01:07:18.765Z,99318
2018-03-01T01:09:24.364Z,99317
2018-03-01T01:11:30.161Z,99321
2018-03-01T01:13:35.846Z,99315
2018-03-01T01:15:41.428Z,99310
2018-03-01T01:17:48.367Z,99314
2018-03-01T01:19:54.748Z,99315
2018-03-01T01:22:00.255Z,99312
2018-03-01T01:24:05.835Z,99309
2018-03-01T01:26:12.302Z,99316
2018-03-01T01:28:18.135Z,99312
2018-03-01T01:30:23.694Z,99303
2018-03-01T01:32:29.383Z,99305
2018-03-01T01:34:35.661Z,99304
2018-03-01T01:36:41.965Z,99304
2018-03-01T01:38:47.673Z,99312
2018-03-01T01:40:53.263Z,99304
2018-03-01T01:43:01.588Z,99301
2018-03-01T01:45:07.292Z,99305
2018-03-01T01:47:13.179Z,99297
2018-03-01T01:49:18.886Z,99297
2018-03-01T01:51:25.299Z,99299
2018-03-01T01:53:30.919Z,99300
2018-03-01T01:55:36.784Z,99303
2018-03-01T01:57:43.040Z,99311
2018-03-01T01:59:49.123Z,99308
2018-03-01T02:01:55.161Z,99297
2018-03-01T02:04:00.694Z,99293
2018-03-01T02:06:07.216Z,99295
2018-03-01T02:08:13.342Z,99295
2018-03-01T02:10:18.947Z,99284
2018-03-01T02:12:25.181Z,99281
2018-03-01T02:14:30.991Z,99273
2018-03-01T02:16:36.841Z,99264
2018-03-01T02:18:42.870Z,99267
2018-03-01T02:20:48.684Z,99260
2018-03-01T02:22:55.239Z,99255
2018-03-01T02:25:03.608Z,99252
2018-03-01T02:27:10.149Z,99249
2018-03-01T02:29:16.677Z,99245
2018-03-01T02:31:22.641Z,99246
2018-03-01T02:33:28.925Z,99233
2018-03-01T02:35:34.506Z,99236
2018-03-01T02:37:40.191Z,99226
2018-03-01T02:39:46.124Z,99215
2018-03-01T02:41:51.424Z,99223
2018-03-01T02:43:57.262Z,99217
2018-03-01T02:46:05.088Z,99216
2018-03-01T02:48:10.944Z,99215
2018-03-01T02:50:16.551Z,99211
2018-03-01T02:52:22.698Z,99204
2018-03-01T02:54:28.504Z,99210
2018-03-01T02:56:34.283Z,99208
2018-03-01T02:58:40.150Z,99203
2018-03-01T03:00:45.879Z,99202
2018-03-01T03:02:57.571Z,99203
2018-03-01T03:05:14.648Z,99199
2018-03-01T03:07:20.471Z,99193
2018-03-01T03:09:26.776Z,99184
2018-03-01T03:11:32.947Z,99175
2018-03-01T03:13:38.840Z,99170
2018-03-01T03:15:44.344Z,99166
2018-03-01T03:17:50.724Z,99173
2018-03-01T03:19:56.176Z,99169
2018-03-01T03:22:02.292Z,99171
2018-03-01T03:24:08.162Z,99166
2018-03-01T03:26:13.695Z,99176
2018-03-01T03:28:19.589Z,99176
2018-03-01T03:30:25.287Z,99171
2018-03-01T03:32:30.660Z,99175
2018-03-01T03:34:36.744Z,99174
2018-03-01T03:36:42.052Z,99177
2018-03-01T03:38:48.160Z,99169
2018-03-01T03:40:54.212Z,99176
2018-03-01T03:43:01.850Z,99181
2018-03-01T03:45:08.452Z,99188
2018-03-01T03:47:15.102Z,99190
2018-03-01T03:49:21.148Z,99188
2018-03-01T03:51:27.484Z,99198
2018-03-01T03:53:33.722Z,99196
2018-03-01T03:55:40.337Z,99197
2018-03-01T03:57:47.862Z,99190
2018-03-01T03:59:53.672Z,99184
2018-03-01T04:02:00.889Z,99181
2018-03-01T04:04:07.312Z,99174
2018-03-01T04:06:13.055Z,99170
2018-03-01T04:08:18.453Z,99163
2018-03-01T04:10:24.488Z,99165
2018-03-01T04:12:30.916Z,99164
2018-03-01T04:14:36.494Z,99158
2018-03-01T04:16:42.797Z,99150
2018-03-01T04:18:48.195Z,99146
2018-03-01T04:23:04.727Z,99147
2018-03-01T04:25:10.479Z,99141
2018-03-01T04:27:16.632Z,99139
2018-03-01T04:29:22.375Z,99143
2018-03-01T04:31:29.200Z,99136
2018-03-01T04:33:34.637Z,99131
2018-03-01T04:35:40.397Z,99134
2018-03-01T04:37:46.251Z,99130
2018-03-01T04:39:52.642Z,99129
2018-03-01T04:41:58.120Z,99126
2018-03-01T04:44:04.933Z,99127
2018-03-01T04:46:10.788Z,99125
2018-03-01T04:48:16.658Z,99115
2018-03-01T04:50:23.116Z,99106
2018-03-01T04:52:33.840Z,99097
2018-03-01T04:54:39.634Z,99096
2018-03-01T04:56:45.791Z,99091
2018-03-01T04:58:52.036Z,99084
2018-03-01T05:01:06.663Z,99086
2018-03-01T05:03:12.372Z,99084
2018-03-01T05:05:18.292Z,99076
2018-03-01T05:07:24.112Z,99079
2018-03-01T05:09:30.332Z,99073
2018-03-01T05:11:35.631Z,99074
2018-03-01T05:13:41.996Z,99068
2018-03-01T05:15:48.022Z,99072
2018-03-01T05:17:54.108Z,99067
2018-03-01T05:19:59.563Z,99068
2018-03-01T05:22:05.377Z,99067
2018-03-01T05:24:10.876Z,99063
2018-03-01T05:26:17.086Z,99066
2018-03-01T05:28:23.552Z,99060
2018-03-01T05:30:28.816Z,99051
2018-03-01T05:32:35.296Z,99051
2018-03-01T05:34:41.233Z,99042
2018-03-01T05:36:46.700Z,99044
2018-03-01T05:38:52.432Z,99043
2018-03-01T05:40:59.445Z,99044
2018-03-01T05:43:05.956Z,99043
2018-03-01T05:45:11.328Z,99040
2018-03-01T05:47:17.056Z,99044
2018-03-01T05:49:23.211Z,99045
2018-03-01T05:51:29.024Z,99053
2018-03-01T05:53:34.798Z,99056
2018-03-01T05:55:40.549Z,99057
2018-03-01T05:57:46.439Z,99053
2018-03-01T05:59:52.146Z,99063
2018-03-01T06:01:59.209Z,99063
2018-03-01T06:04:05.360Z,99062
2018-03-01T06:06:10.754Z,99069
2018-03-01T06:08:16.754Z,99062
2018-03-01T06:10:26.753Z,99061
2018-03-01T06:12:32.090Z,99065
2018-03-01T06:14:37.479Z,99062
2018-03-01T06:16:43.214Z,99060
2018-03-01T06:18:48.645Z,99051
2018-03-01T06:20:54.064Z,99054
2018-03-01T06:23:00.033Z,99052
2018-03-01T06:25:05.572Z,99050
2018-03-01T06:27:10.864Z,99045
2018-03-01T06:29:17.105Z,99048
2018-03-01T06:31:23.845Z,99045
2018-03-01T06:33:34.119Z,99043
2018-03-01T06:35:39.843Z,99035
2018-03-01T06:38:48.405Z,99034
2018-03-01T06:40:53.886Z,99032
2018-03-01T06:42:59.369Z,99029
2018-03-01T06:45:06.332Z,99030
2018-03-01T06:47:13.049Z,99027
2018-03-01T06:49:19.216Z,99027
2018-03-01T06:51:24.947Z,99028
2018-03-01T06:53:31.537Z,99029
2018-03-01T06:55:37.770Z,99030
2018-03-01T06:57:43.989Z,99029
2018-03-01T06:59:49.348Z,99025
2018-03-01T07:01:56.509Z,99029
2018-03-01T07:04:03.413Z,99022
2018-03-01T07:06:26.194Z,99023
2018-03-01T07:08:31.505Z,99028
2018-03-01T07:10:37.125Z,99030
2018-03-01T07:12:42.616Z,99032
2018-03-01T07:14:47.878Z,99032
2018-03-01T07:16:57.474Z,99023
2018-03-01T07:19:03.279Z,99013
2018-03-01T07:21:08.628Z,99007
2018-03-01T07:23:14.042Z,98995
2018-03-01T07:25:19.608Z,98983
2018-03-01T07:27:25.049Z,98984
2018-03-01T07:29:30.979Z,98992
2018-03-01T07:31:36.536Z,98983
2018-03-01T07:33:42.268Z,98991
2018-03-01T07:35:47.854Z,98981
2018-03-01T07:37:53.476Z,98983
2018-03-01T07:39:58.833Z,98981
2018-03-01T07:42:04.149Z,98972
2018-03-01T07:44:10.743Z,98969
2018-03-01T07:46:16.502Z,98968
2018-03-01T07:48:22.368Z,98968
2018-03-01T07:50:28.121Z,98963
2018-03-01T07:52:33.404Z,98958
2018-03-01T07:54:38.839Z,98957
2018-03-01T07:56:44.091Z,98950
2018-03-01T07:58:50.664Z,98952
2018-03-01T08:00:55.937Z,98943
2018-03-01T08:03:01.341Z,98947
2018-03-01T08:05:07.616Z,98946
2018-03-01T08:07:13.246Z,98943
2018-03-01T08:09:18.976Z,98934
2018-03-01T08:11:24.998Z,98933
2018-03-01T08:13:30.791Z,98937
2018-03-01T08:15:36.868Z,98919
2018-03-01T08:17:42.312Z,98917
2018-03-01T08:19:48.407Z,98912
2018-03-01T08:21:53.788Z,98904
2018-03-01T08:24:00.144Z,98902
2018-03-01T08:26:05.963Z,98907
2018-03-01T08:28:13.520Z,98908
2018-03-01T08:30:18.860Z,98904
2018-03-01T08:32:24.872Z,98910
2018-03-01T08:34:30.498Z,98917
2018-03-01T08:36:36.221Z,98916
2018-03-01T08:38:41.896Z,98915
2018-03-01T08:40:48.071Z,98916
2018-03-01T08:42:54.436Z,98923
2018-03-01T08:44:59.866Z,98919
2018-03-01T08:47:06.332Z,98910
2018-03-01T08:49:11.674Z,98909
2018-03-01T08:51:17.042Z,98906
2018-03-01T08:53:22.700Z,98901
2018-03-01T08:55:31.171Z,98899
2018-03-01T08:57:37.129Z,98892
2018-03-01T08:59:42.813Z,98878
2018-03-01T09:01:48.932Z,98874
2018-03-01T09:03:55.088Z,98864
2018-03-01T09:06:02.640Z,98864
2018-03-01T09:08:09.224Z,98870
2018-03-01T09:10:14.928Z,98863
2018-03-01T09:12:21.867Z,98865
2018-03-01T09:14:27.163Z,98870
2018-03-01T09:16:33.032Z,98859
2018-03-01T09:18:38.632Z,98858
2018-03-01T09:20:44.047Z,98851
2018-03-01T09:22:51.070Z,98856
2018-03-01T09:24:58.598Z,98846
2018-03-01T09:27:07.700Z,98846
2018-03-01T09:29:14.772Z,98831
2018-03-01T09:31:21.218Z,98832
2018-03-01T09:33:26.624Z,98831
2018-03-01T09:35:32.056Z,98834
2018-03-01T09:37:38.792Z,98825
2018-03-01T09:39:45.185Z,98824
2018-03-01T09:41:52.248Z,98822
2018-03-01T09:43:58.054Z,98824
2018-03-01T09:46:03.629Z,98814
2018-03-01T09:48:08.884Z,98814
2018-03-01T09:50:14.313Z,98810
2018-03-01T09:52:20.066Z,98801
2018-03-01T09:54:25.530Z,98806
2018-03-01T09:56:30.893Z,98805
2018-03-01T09:58:36.471Z,98787
2018-03-01T10:00:44.484Z,98801
2018-03-01T10:02:51.874Z,98799
2018-03-01T10:04:58.749Z,98794
2018-03-01T10:07:04.059Z,98799
2018-03-01T10:09:09.825Z,98797
2018-03-01T10:11:21.196Z,98794
2018-03-01T10:13:26.473Z,98792
2018-03-01T10:15:31.728Z,98797
2018-03-01T10:17:37.299Z,98790
2018-03-01T10:19:45.144Z,98782
2018-03-01T10:21:56.904Z,98785
2018-03-01T10:24:02.825Z,98772
2018-03-01T10:26:08.272Z,98774
2018-03-01T10:28:15.155Z,98765
2018-03-01T10:30:21.469Z,98769
2018-03-01T10:32:26.953Z,98770
2018-03-01T10:34:32.424Z,98760
2018-03-01T10:36:38.610Z,98771
2018-03-01T10:38:44.016Z,98767
2018-03-01T10:40:49.757Z,98765
2018-03-01T10:42:55.324Z,98762
2018-03-01T10:45:01.613Z,98758
2018-03-01T10:47:07.530Z,98758
2018-03-01T10:49:13.683Z,98758
2018-03-01T10:51:19.118Z,98758
2018-03-01T10:53:27.673Z,98754
2018-03-01T10:55:33.287Z,98745
2018-03-01T10:57:38.598Z,98749
2018-03-01T10:59:43.893Z,98754
2018-03-01T11:01:53.160Z,98740
2018-03-01T11:03:59.892Z,98734
2018-03-01T11:06:06.099Z,98731
2018-03-01T11:08:11.732Z,98726
2018-03-01T11:10:17.601Z,98721
2018-03-01T11:12:23.209Z,98718
2018-03-01T11:14:29.607Z,98711
2018-03-01T11:16:34.984Z,98706
2018-03-01T11:18:40.432Z,98704
2018-03-01T11:20:46.137Z,98702
2018-03-01T11:22:52.980Z,98698
2018-03-01T11:24:58.695Z,98699
2018-03-01T11:27:04.365Z,98702
2018-03-01T11:29:10.074Z,98697
2018-03-01T11:31:16.011Z,98694
2018-03-01T11:33:21.541Z,98686
2018-03-01T11:35:26.864Z,98684
2018-03-01T11:37:32.133Z,98680
2018-03-01T11:39:37.752Z,98663
2018-03-01T11:41:43.128Z,98664
2018-03-01T11:43:49.008Z,98672
2018-03-01T11:45:54.627Z,98668
2018-03-01T11:47:59.912Z,98663
2018-03-01T11:50:05.220Z,98658
2018-03-01T11:52:10.878Z,98651
2018-03-01T11:54:16.152Z,98651
2018-03-01T11:56:24.317Z,98644
2018-03-01T11:58:29.977Z,98646
2018-03-01T12:00:36.023Z,98637
2018-03-01T12:02:41.348Z,98640
2018-03-01T12:04:47.521Z,98636
2018-03-01T12:06:52.752Z,98637
2018-03-01T12:08:58.680Z,98635
2018-03-01T12:11:04.813Z,98615
2018-03-01T12:13:10.214Z,98621
2018-03-01T12:15:20.288Z,98615
2018-03-01T12:17:25.925Z,98620
2018-03-01T12:19:31.357Z,98620
2018-03-01T12:21:37.419Z,98607
2018-03-01T12:23:43.143Z,98604
2018-03-01T12:25:48.417Z,98608
2018-03-01T12:27:53.712Z,98610
2018-03-01T12:30:00.611Z,98598
2018-03-01T12:32:06.033Z,98601
2018-03-01T12:34:11.368Z,98600
2018-03-01T12:36:16.817Z,98582
2018-03-01T12:38:22.512Z,98601
2018-03-01T12:40:27.858Z,98597
2018-03-01T12:42:34.164Z,98588
2018-03-01T12:44:39.784Z,98583
2018-03-01T12:46:45.053Z,98581
2018-03-01T12:48:50.888Z,98571
2018-03-01T12:50:56.922Z,98570
2018-03-01T12:53:02.496Z,98574
2018-03-01T12:55:07.937Z,98568
2018-03-01T12:58:37.989Z,98567
2018-03-01T13:00:43.452Z,98560
2018-03-01T13:02:49.958Z,98562
2018-03-01T13:04:55.487Z,98570
2018-03-01T13:07:01.052Z,98556
2018-03-01T13:09:08.620Z,98561
2018-03-01T13:11:14.163Z,98560
2018-03-01T13:13:19.672Z,98554
2018-03-01T13:15:25.704Z,98550
2018-03-01T13:17:31.131Z,98544
2018-03-01T13:19:36.989Z,98554
2018-03-01T13:21:42.860Z,98545
2018-03-01T13:23:48.389Z,98544
2018-03-01T13:25:53.940Z,98542
2018-03-01T13:27:59.911Z,98547
2018-03-01T13:30:05.489Z,98541
2018-03-01T13:32:11.088Z,98537
2018-03-01T13:34:16.989Z,98539
2018-03-01T13:36:23.186Z,98521
2018-03-01T13:38:29.615Z,98523
2018-03-01T13:40:35.404Z,98529
2018-03-01T13:42:40.905Z,98514
2018-03-01T13:44:46.457Z,98503
2018-03-01T13:46:52.494Z,98506
2018-03-01T13:48:58.021Z,98513
2018-03-01T13:51:03.650Z,98509
2018-03-01T13:55:19.317Z,98507
2018-03-01T13:57:24.754Z,98508
2018-03-01T13:59:31.285Z,98506
2018-03-01T14:01:37.745Z,98497
2018-03-01T14:03:43.272Z,98486
2018-03-01T14:05:49.106Z,98489
2018-03-01T14:07:54.968Z,98483
2018-03-01T14:10:00.478Z,98487
2018-03-01T14:12:06.321Z,98480
2018-03-01T14:14:11.854Z,98465
2018-03-01T14:16:19.539Z,98471
2018-03-01T14:18:25.344Z,98481
2018-03-01T14:20:30.920Z,98471
2018-03-01T14:22:36.417Z,98470
2018-03-01T14:24:42.296Z,98465
2018-03-01T14:26:47.737Z,98459
2018-03-01T14:28:53.304Z,98456
2018-03-01T14:31:00.411Z,98444
2018-03-01T14:33:06.460Z,98449
2018-03-01T14:35:12.455Z,98444
2018-03-01T14:37:18.077Z,98449
2018-03-01T14:39:23.413Z,98438
2018-03-01T14:41:28.697Z,98445
2018-03-01T14:43:34.333Z,98448
2018-03-01T14:45:39.805Z,98446
2018-03-01T14:47:45.413Z,98446
2018-03-01T14:49:50.964Z,98440
2018-03-01T14:51:56.385Z,98438
2018-03-01T14:54:01.791Z,98431
2018-03-01T14:56:07.415Z,98425
2018-03-01T14:58:12.808Z,98429
2018-03-01T15:00:18.282Z,98428
2018-03-01T15:02:23.924Z,98427
2018-03-01T15:04:29.332Z,98416
2018-03-01T15:06:37.056Z,98412
2018-03-01T15:08:42.692Z,98417
2018-03-01T15:10:48.928Z,98408
2018-03-01T15:12:54.196Z,98406
2018-03-01T15:14:59.835Z,98406
2018-03-01T15:17:05.135Z,98403
2018-03-01T15:19:11.232Z,98411
2018-03-01T15:21:16.940Z,98421
2018-03-01T15:23:22.684Z,98419
2018-03-01T15:25:27.945Z,98419
2018-03-01T15:27:33.850Z,98419
2018-03-01T15:29:39.269Z,98408
2018-03-01T15:31:44.592Z,98394
2018-03-01T15:33:50.272Z,98403
2018-03-01T15:35:55.573Z,98406
2018-03-01T15:38:00.948Z,98401
2018-03-01T15:40:06.740Z,98405
2018-03-01T15:42:12.053Z,98403
2018-03-01T15:44:17.316Z,98410
2018-03-01T15:46:22.844Z,98407
2018-03-01T15:48:28.152Z,98407
2018-03-01T15:50:33.445Z,98402
2018-03-01T15:52:39.015Z,98396
2018-03-01T15:54:44.322Z,98388
2018-03-01T15:56:49.700Z,98383
2018-03-01T15:58:55.228Z,98388
2018-03-01T16:01:00.525Z,98385
2018-03-01T16:03:05.892Z,98376
2018-03-01T16:05:11.454Z,98371
2018-03-01T16:07:16.800Z,98380
2018-03-01T16:09:22.675Z,98385
2018-03-01T16:11:30.673Z,98391
2018-03-01T16:13:36.167Z,98391
2018-03-01T16:15:41.472Z,98392
2018-03-01T16:17:47.268Z,98390
2018-03-01T16:19:52.584Z,98392
2018-03-01T16:21:58.008Z,98394
2018-03-01T16:24:04.313Z,98383
2018-03-01T16:26:09.817Z,98394
2018-03-01T16:28:15.233Z,98389
2018-03-01T16:30:20.872Z,98385
2018-03-01T16:32:26.240Z,98385
2018-03-01T16:34:31.627Z,98383
2018-03-01T16:36:37.335Z,98378
2018-03-01T16:38:42.803Z,98384
2018-03-01T16:40:48.825Z,98388
2018-03-01T16:42:54.720Z,98384
2018-03-01T16:45:00.927Z,98382
2018-03-01T16:47:07.698Z,98386
2018-03-01T16:49:13.889Z,98388
2018-03-01T16:51:19.373Z,98387
2018-03-01T16:53:24.785Z,98394
2018-03-01T16:55:30.458Z,98396
2018-03-01T16:57:35.882Z,98395
2018-03-01T16:59:41.702Z,98399
2018-03-01T17:01:48.695Z,98407
2018-03-01T17:03:55.053Z,98405
2018-03-01T17:06:00.369Z,98415
2018-03-01T17:08:06.123Z,98415
2018-03-01T17:10:11.609Z,98419
2018-03-01T17:12:16.935Z,98421
2018-03-01T17:14:24.548Z,98418
2018-03-01T17:16:30.877Z,98420
2018-03-01T17:18:36.275Z,98424
2018-03-01T17:20:41.838Z,98427
2018-03-01T17:22:47.185Z,98425
2018-03-01T17:24:53.498Z,98421
2018-03-01T17:27:00.361Z,98427
2018-03-01T17:29:05.743Z,98435
2018-03-01T17:31:11.686Z,98436
2018-03-01T17:33:17.515Z,98437
2018-03-01T17:35:22.945Z,98436
2018-03-01T17:37:28.268Z,98439
2018-03-01T17:39:33.932Z,98432
2018-03-01T17:41:39.415Z,98431
2018-03-01T17:43:44.882Z,98433
2018-03-01T17:45:51.174Z,98431
2018-03-01T17:48:03.118Z,98431
2018-03-01T17:50:10.076Z,98430
2018-03-01T17:52:16.982Z,98436
2018-03-01T17:54:23.023Z,98436
2018-03-01T17:56:28.355Z,98436
2018-03-01T17:58:34.601Z,98440
2018-03-01T18:00:43.199Z,98444
2018-03-01T18:02:49.425Z,98442
2018-03-01T18:04:56.240Z,98444
2018-03-01T18:07:01.656Z,98433
2018-03-01T18:09:07.513Z,98433
2018-03-01T18:11:14.623Z,98426
2018-03-01T18:13:19.980Z,98427
2018-03-01T18:15:25.417Z,98426
2018-03-01T18:17:33.467Z,98420
2018-03-01T18:19:39.544Z,98424
2018-03-01T18:21:45.188Z,98430
2018-03-01T18:23:51.086Z,98423
2018-03-01T18:25:56.669Z,98413
2018-03-01T18:28:02.000Z,98418
2018-03-01T18:30:08.257Z,98412
2018-03-01T18:32:14.822Z,98410
2018-03-01T18:34:20.251Z,98413
2018-03-01T18:36:27.249Z,98414
2018-03-01T18:38:33.349Z,98409
2018-03-01T18:40:38.632Z,98409
2018-03-01T18:42:46.380Z,98411
2018-03-01T18:44:51.636Z,98411
2018-03-01T18:46:57.186Z,98410
2018-03-01T18:49:02.922Z,98411
2018-03-01T18:51:15.453Z,98415
2018-03-01T18:53:20.848Z,98412
2018-03-01T18:55:26.718Z,98409
2018-03-01T18:57:32.214Z,98410
2018-03-01T18:59:37.715Z,98401
2018-03-01T19:01:43.313Z,98399
2018-03-01T19:03:48.621Z,98410
2018-03-01T19:05:54.148Z,98404
2018-03-01T19:08:02.178Z,98408
2018-03-01T19:10:07.740Z,98407
2018-03-01T19:12:20.416Z,98403
2018-03-01T19:14:29.633Z,98408
2018-03-01T19:16:35.051Z,98402
2018-03-01T19:18:40.493Z,98401
2018-03-01T19:20:46.292Z,98402
2018-03-01T19:22:53.851Z,98403
2018-03-01T19:25:00.456Z,98399
2018-03-01T19:27:07.196Z,98396
2018-03-01T19:29:12.656Z,98398
2018-03-01T19:31:18.012Z,98391
2018-03-01T19:33:25.229Z,98396
2018-03-01T19:36:12.309Z,98394
2018-03-01T19:38:19.318Z,98392
2018-03-01T19:40:24.985Z,98388
2018-03-01T19:42:30.891Z,98389
2018-03-01T19:44:36.293Z,98378
2018-03-01T19:46:42.065Z,98378
2018-03-01T19:48:47.633Z,98373
2018-03-01T19:50:53.282Z,98366
2018-03-01T19:52:59.596Z,98365
2018-03-01T19:55:05.283Z,98368
2018-03-01T19:57:11.102Z,98363
2018-03-01T19:59:16.649Z,98364
2018-03-01T20:01:22.046Z,98365
2018-03-01T20:03:27.380Z,98360
2018-03-01T20:05:33.008Z,98357
2018-03-01T20:07:38.356Z,98360
2018-03-01T20:09:43.690Z,98350
2018-03-01T20:11:49.332Z,98348
2018-03-01T20:13:54.828Z,98348
2018-03-01T20:16:00.221Z,98343
2018-03-01T20:18:07.306Z,98339
2018-03-01T20:20:12.753Z,98341
2018-03-01T20:22:18.568Z,98337
2018-03-01T20:24:25.838Z,98337
2018-03-01T20:26:31.936Z,98336
2018-03-01T20:28:37.730Z,98332
2018-03-01T20:30:43.627Z,98332
2018-03-01T20:32:55.937Z,98332
2018-03-01T20:36:28.435Z,98335
2018-03-01T20:38:34.261Z,98336
2018-03-01T20:40:41.372Z,98336
2018-03-01T20:42:48.399Z,98333
2018-03-01T20:44:55.082Z,98331
2018-03-01T20:47:02.062Z,98333
2018-03-01T20:49:09.218Z,98329
2018-03-01T20:51:18.094Z,98318
2018-03-01T20:53:24.028Z,98303
2018-03-01T20:55:29.881Z,98311
2018-03-01T20:57:35.401Z,98311
2018-03-01T20:59:40.959Z,98307
2018-03-01T21:01:46.620Z,98305
2018-03-01T21:03:51.910Z,98303
2018-03-01T21:06:00.452Z,98298
2018-03-01T21:08:07.787Z,98302
2018-03-01T21:10:14.450Z,98295
2018-03-01T21:12:20.437Z,98285
2018-03-01T21:14:27.558Z,98293
2018-03-01T21:16:46.764Z,98289
2018-03-01T21:18:52.360Z,98277
2018-03-01T21:20:58.570Z,98275
2018-03-01T21:23:04.223Z,98278
2018-03-01T21:25:09.680Z,98275
2018-03-01T21:27:15.986Z,98274
2018-03-01T21:29:21.599Z,98275
2018-03-01T21:31:27.253Z,98272
2018-03-01T21:33:33.650Z,98263
2018-03-01T21:35:39.376Z,98261
2018-03-01T21:37:44.725Z,98253
2018-03-01T21:39:50.585Z,98252
2018-03-01T21:41:56.355Z,98255
2018-03-01T21:44:02.108Z,98260
2018-03-01T21:46:08.421Z,98255
2018-03-01T21:48:14.472Z,98253
2018-03-01T21:50:19.852Z,98250
2018-03-01T21:52:25.747Z,98248
2018-03-01T21:54:31.064Z,98249
2018-03-01T21:56:36.314Z,98245
2018-03-01T21:58:42.961Z,98248
2018-03-01T22:00:49.157Z,98249
2018-03-01T22:02:55.261Z,98247
2018-03-01T22:05:01.590Z,98249
2018-03-01T22:09:17.486Z,98243
2018-03-01T22:11:25.304Z,98240
2018-03-01T22:13:31.189Z,98226
2018-03-01T22:15:37.160Z,98218
2018-03-01T22:17:42.760Z,98214
2018-03-01T22:19:48.021Z,98211
2018-03-01T22:21:53.949Z,98205
2018-03-01T22:24:00.616Z,98201
2018-03-01T22:26:07.887Z,98201
2018-03-01T22:28:13.274Z,98198
2018-03-01T22:30:18.959Z,98194
2018-03-01T22:32:24.568Z,98194
2018-03-01T22:34:29.949Z,98190
2018-03-01T22:36:36.157Z,98181
2018-03-01T22:38:41.538Z,98184
2018-03-01T22:40:47.377Z,98178
2018-03-01T22:42:53.550Z,98179
2018-03-01T22:45:00.577Z,98179
2018-03-01T22:47:06.630Z,98189
2018-03-01T22:49:12.233Z,98186
2018-03-01T22:51:19.068Z,98180
2018-03-01T22:53:25.059Z,98175
2018-03-01T22:55:30.715Z,98169
2018-03-01T22:57:36.056Z,98170
2018-03-01T22:59:42.113Z,98176
2018-03-01T23:01:48.640Z,98177
2018-03-01T23:03:54.089Z,98172
2018-03-01T23:06:01.163Z,98165
2018-03-01T23:08:06.960Z,98167
2018-03-01T23:10:12.674Z,98166
2018-03-01T23:12:18.935Z,98153
2018-03-01T23:14:24.620Z,98152
2018-03-01T23:16:31.070Z,98153
2018-03-01T23:18:36.856Z,98145
2018-03-01T23:20:49.812Z,98139
2018-03-01T23:22:55.252Z,98135
2018-03-01T23:25:01.894Z,98127
2018-03-01T23:27:07.672Z,98125
2018-03-01T23:29:13.093Z,98125
2018-03-01T23:31:18.404Z,98123
2018-03-01T23:33:24.857Z,98119
2018-03-01T23:35:30.763Z,98124
2018-03-01T23:37:36.077Z,98123
2018-03-01T23:39:42.093Z,98118
2018-03-01T23:41:47.725Z,98112
2018-03-01T23:43:53.687Z,98108
2018-03-01T23:46:06.984Z,98108
2018-03-01T23:48:12.969Z,98110
2018-03-01T23:50:18.552Z,98110
2018-03-01T23:52:24.240Z,98107
2018-03-01T23:54:30.457Z,98099
2018-03-01T23:56:35.842Z,98098
2018-03-01T23:58:41.531Z,98100
